INFORMACIÓN METAR y TAF
METAR FOR LELL
ADDS - METARS form results

(0253 UTC 22 February 2019)
Data provider http://aviationweather.gov/metar/data/
 
METAR text: LELL 220230Z AUTO 00000KT 3600 BR NSC 04/04 Q1030
Conditions at: LELL (SABADELL , ES) observed 0230 UTC 22 February 2019
Temperature: 4.0°C (39°F)
Dewpoint: 4.0°C (39°F) [RH = 100%]
Pressure (altimeter): 30.41 inches Hg (1030.0 mb)
Winds: calm
Visibility: 2.24 miles (3.60 km)
Ceiling: at least 12,000 feet AGL
Clouds: sky clear below 12,000 feet AGL
Weather: BR  (mist)

METAR text: LELL 220200Z AUTO 00000KT 3800 BR NSC 05/04 Q1030
Conditions at: LELL (SABADELL , ES) observed 0200 UTC 22 February 2019
Temperature: 5.0°C (41°F)
Dewpoint: 4.0°C (39°F) [RH = 93%]
Pressure (altimeter): 30.41 inches Hg (1030.0 mb)
Winds: calm
Visibility: 2.36 miles (3.80 km)
Ceiling: at least 12,000 feet AGL
Clouds: sky clear below 12,000 feet AGL
Weather: BR  (mist)

Forecast for: LELL (SABADELL , ES)
Text: TAF LELL 220200Z 2203/2303 27005KT 9999 FEW030 TX19/2213Z TN06/2206Z
Forecast period: 0300 UTC 22 February 2019 to 0300 UTC 23 February 2019
Forecast type: FROM: standard forecast or significant change
Winds: from the W (270 degrees) at 6 MPH (5 knots; 2.6 m/s)
Visibility: 6 or more miles 10+ km)
Ceiling: at least 12,000 feet AGL
Clouds: few clouds at 3000 feet AGL
Weather: no significant weather forecast for this period
Text: PROB40
Forecast period: 0300 to 0800 UTC 22 February 2019
Forecast type: TEMPORARY: The following changes expected for less than half the time period
Visibility: 1.86 miles (2.99 km)
Ceiling: unknown
Clouds: missing
Weather: BR  (mist)

 MAPA DE AEROPUERTO

 INFORMACIÓN DE PISTA
Pista 13 Longitud 2953 ft Ancho 0 ft
Elevación 485 ft Umbral desplazado 0 ft Rumbo de pista 0
Pista 31 Longitud 2953 ft Ancho 0 ft
Elevación 445 ft Umbral desplazado 0 ft Rumbo de pista 0

 FRECUANCIAS DEL AEROPUERTO

 RADIO AYUDAS DEL AEROPUERTO
Tipo NDB Nombre Sabadell Frecuencia 367 KHZ



Powered by Virtual Airlines Manager [v2.6.2]